高雄終端管制區 - 高雄雷達席

METAR RCKH 141500Z VRB02KT 8000 FEW020 22/15 Q1019 NOSIG RMK A3011(E)=

站台狀態:Online
最後更新:2019-12-14 23:00:01